Time;durP1;ratioP1;P1;durP2;ratioP2;P2;SDS_P1;SDS_P2;PMS_P1;PMS_P2;Temp;Humidity;BMP_temperature;BMP_pressure;BME280_temperature;BME280_humidity;BME280_pressure;Samples;Min_cycle;Max_cycle;Signal;HPM_P1;HPM_P2
2022/01/07 00:00:19;;;;;;;6.35;2.80;;;;;;;-0.68;100.00;100792.38;5073212;28;20502;-73
2022/01/07 00:02:49;;;;;;;5.70;2.75;;;;;;;-0.69;100.00;100799.38;5074014;28;20090;-72
2022/01/07 00:05:18;;;;;;;8.07;2.40;;;;;;;-0.76;100.00;100799.44;5073442;28;20041;-73
2022/01/07 00:07:48;;;;;;;7.30;2.58;;;;;;;-0.76;100.00;100792.44;5073870;28;20123;-72
2022/01/07 00:10:20;;;;;;;6.53;2.67;;;;;;;-0.84;100.00;100798.59;5073621;28;20040;-72
2022/01/07 00:12:50;;;;;;;6.57;2.60;;;;;;;-0.87;100.00;100803.00;5073919;28;20044;-72
2022/01/07 00:15:21;;;;;;;5.38;2.65;;;;;;;-0.85;100.00;100808.22;5073315;28;20071;-73
2022/01/07 00:17:50;;;;;;;6.25;2.83;;;;;;;-0.88;100.00;100805.59;5073607;28;20049;-72
2022/01/07 00:20:19;;;;;;;7.60;2.90;;;;;;;-0.87;100.00;100813.47;5073376;28;20068;-72
2022/01/07 00:22:48;;;;;;;4.90;2.50;;;;;;;-0.90;100.00;100813.47;5073305;28;20577;-72
2022/01/07 00:25:17;;;;;;;5.68;2.65;;;;;;;-0.92;100.00;100809.13;5073223;28;20055;-72
2022/01/07 00:27:46;;;;;;;7.20;2.80;;;;;;;-0.98;100.00;100815.22;5073523;28;20037;-72
2022/01/07 00:30:16;;;;;;;6.00;2.75;;;;;;;-0.87;100.00;100825.66;5073196;28;20082;-72
2022/01/07 00:32:46;;;;;;;6.32;2.60;;;;;;;-0.89;100.00;100832.66;5073187;28;20045;-72
2022/01/07 00:35:16;;;;;;;8.25;2.97;;;;;;;-0.87;100.00;100842.28;5072928;28;20078;-73
2022/01/07 00:37:45;;;;;;;6.95;2.75;;;;;;;-0.94;100.00;100842.31;5073672;28;20128;-71
2022/01/07 00:40:16;;;;;;;7.55;2.90;;;;;;;-0.91;100.00;100837.03;5072357;28;20048;-72
2022/01/07 00:42:46;;;;;;;7.07;2.63;;;;;;;-0.88;100.00;100837.00;5073477;28;20044;-72
2022/01/07 00:45:16;;;;;;;5.57;2.65;;;;;;;-0.96;100.00;100841.44;5072733;28;20047;-72
2022/01/07 00:47:46;;;;;;;9.95;3.38;;;;;;;-1.02;100.00;100844.06;5072969;28;20055;-72
2022/01/07 00:50:16;;;;;;;7.53;2.80;;;;;;;-1.03;100.00;100842.34;5072908;28;20041;-73
2022/01/07 00:52:45;;;;;;;6.68;2.88;;;;;;;-1.11;100.00;100838.88;5073273;28;20485;-73
2022/01/07 00:55:13;;;;;;;6.80;2.65;;;;;;;-1.21;100.00;100846.75;5072721;28;20413;-75
2022/01/07 00:57:42;;;;;;;7.68;3.15;;;;;;;-1.02;100.00;100838.84;5073355;28;20052;-73
2022/01/07 01:00:13;;;;;;;7.07;2.97;;;;;;;-1.05;100.00;100844.09;5073264;28;20102;-72
2022/01/07 01:02:43;;;;;;;;;;;;;;;-1.05;100.00;100834.50;5073451;28;20428;-72
2022/01/07 01:05:15;;;;;;;5.82;2.78;;;;;;;-0.91;100.00;100839.66;5073043;28;19978;-71
2022/01/07 01:07:44;;;;;;;7.55;3.10;;;;;;;-1.05;100.00;100829.25;5073135;28;20040;-71
2022/01/07 01:10:14;;;;;;;6.72;3.13;;;;;;;-1.05;100.00;100828.38;5072897;28;20048;-71
2022/01/07 01:12:45;;;;;;;7.97;3.35;;;;;;;-1.08;100.00;100831.00;5072934;28;20052;-72
2022/01/07 01:15:17;;;;;;;6.97;3.00;;;;;;;-1.04;100.00;100819.66;5073052;28;20045;-72
2022/01/07 01:17:45;;;;;;;6.90;3.08;;;;;;;-1.09;100.00;100805.69;5073122;28;20048;-71
2022/01/07 01:20:15;;;;;;;5.88;3.20;;;;;;;-1.15;100.00;100822.31;5072935;28;20444;-71
2022/01/07 01:22:44;;;;;;;8.18;3.25;;;;;;;-1.16;100.00;100810.97;5072974;28;20500;-71
2022/01/07 01:25:13;;;;;;;8.85;2.88;;;;;;;-1.24;100.00;100823.19;5073173;28;20048;-71
2022/01/07 01:27:41;;;;;;;7.70;3.08;;;;;;;-1.28;100.00;100817.97;5072820;28;20052;-72
2022/01/07 01:30:12;;;;;;;8.25;3.05;;;;;;;-1.25;100.00;100826.69;5072481;28;20482;-71
2022/01/07 01:32:43;;;;;;;7.03;3.20;;;;;;;-1.28;100.00;100816.22;5072651;28;20048;-71
2022/01/07 01:35:12;;;;;;;7.25;3.30;;;;;;;-1.40;100.00;100812.78;5073134;28;20044;-71
2022/01/07 01:37:43;;;;;;;7.18;3.40;;;;;;;-1.52;100.00;100826.75;5072557;28;20044;-72
2022/01/07 01:40:12;;;;;;;7.85;3.50;;;;;;;-1.51;100.00;100833.72;5072867;28;20510;-72
2022/01/07 01:42:40;;;;;;;8.20;3.40;;;;;;;-1.55;100.00;100842.44;5072493;28;20162;-72
2022/01/07 01:45:14;;;;;;;6.55;3.22;;;;;;;-1.49;100.00;100831.97;5072634;28;20040;-73
2022/01/07 01:47:43;;;;;;;6.53;3.05;;;;;;;-1.43;100.00;100824.13;5072971;28;20052;-73
2022/01/07 01:50:13;;;;;;;6.45;3.30;;;;;;;-1.53;100.00;100828.50;5073536;28;20037;-73
2022/01/07 01:52:47;;;;;;;8.65;3.50;;;;;;;-1.64;100.00;100832.00;5076584;28;20040;-73
2022/01/07 01:55:18;;;;;;;8.85;3.85;;;;;;;-1.81;100.00;100853.81;5076581;28;20044;-73
2022/01/07 01:57:46;;;;;;;8.77;3.35;;;;;;;-1.81;100.00;100851.19;5076655;28;20394;-73
2022/01/07 02:00:15;;;;;;;7.85;3.30;;;;;;;-1.77;100.00;100852.06;5076265;28;20057;-73
2022/01/07 02:02:44;;;;;;;8.45;3.15;;;;;;;-1.79;100.00;100840.75;5076169;28;20090;-73
2022/01/07 02:05:12;;;;;;;8.88;3.50;;;;;;;-1.80;100.00;100852.94;5076164;28;20040;-73
2022/01/07 02:07:41;;;;;;;9.25;3.67;;;;;;;-1.89;100.00;100863.41;5075719;28;20047;-73
2022/01/07 02:10:14;;;;;;;6.88;3.42;;;;;;;-2.02;100.00;100883.44;5075944;28;20045;-74
2022/01/07 02:12:43;;;;;;;7.78;3.70;;;;;;;-2.11;100.00;100882.56;5075905;28;20040;-74
2022/01/07 02:15:13;;;;;;;6.72;3.30;;;;;;;-2.09;100.00;100886.03;5075921;28;20049;-73
2022/01/07 02:17:42;;;;;;;7.35;3.35;;;;;;;-2.20;100.00;100882.56;5075724;28;20059;-74
2022/01/07 02:20:14;;;;;;;12.18;3.47;;;;;;;-2.33;100.00;100877.28;5076000;28;20055;-73
2022/01/07 02:22:43;;;;;;;7.67;3.57;;;;;;;-2.23;100.00;100878.16;5075487;28;20036;-72
2022/01/07 02:25:12;;;;;;;8.75;3.58;;;;;;;-2.13;100.00;100885.16;5075820;28;20044;-73
2022/01/07 02:27:44;;;;;;;9.32;3.72;;;;;;;-2.03;100.00;100883.41;5075369;28;20048;-71
2022/01/07 02:30:16;;;;;;;8.32;3.25;;;;;;;-2.19;100.00;100881.69;5076112;28;20400;-71
2022/01/07 02:32:44;;;;;;;7.68;3.30;;;;;;;-2.12;100.00;100881.69;5075664;28;20080;-71
2022/01/07 02:35:15;;;;;;;7.68;3.33;;;;;;;-1.96;100.00;100879.94;5075784;28;20045;-72
2022/01/07 02:37:44;;;;;;;8.10;3.47;;;;;;;-2.01;100.00;100871.25;5074614;28;20500;-72
2022/01/07 02:40:14;;;;;;;10.98;3.90;;;;;;;-2.10;100.00;100881.69;5075395;28;20459;-72
2022/01/07 02:42:42;;;;;;;7.90;3.78;;;;;;;-2.27;100.00;100886.00;5075572;28;20054;-72
2022/01/07 02:45:13;;;;;;;9.68;3.60;;;;;;;-2.13;100.00;100881.66;5075438;28;20051;-71
2022/01/07 02:47:49;;;;;;;8.40;3.25;;;;;;;-2.13;100.00;100863.38;5075242;28;20052;-71
2022/01/07 02:50:22;;;;;;;6.93;3.33;;;;;;;-2.06;100.00;100871.22;5075647;28;20127;-71
2022/01/07 02:52:51;;;;;;;6.45;3.47;;;;;;;-2.20;100.00;100877.31;5075616;28;20070;-72
2022/01/07 02:55:20;;;;;;;9.65;3.95;;;;;;;-2.31;100.00;100880.78;5075413;28;20127;-71
2022/01/07 02:57:49;;;;;;;7.95;4.05;;;;;;;-2.37;100.00;100875.53;5075527;28;20036;-74
2022/01/07 03:00:19;;;;;;;7.95;3.67;;;;;;;-2.18;100.00;100880.81;5074796;28;20082;-73
2022/01/07 03:02:48;;;;;;;7.55;3.25;;;;;;;-1.66;100.00;100870.38;5074487;28;20044;-73
2022/01/07 03:05:18;;;;;;;8.98;3.75;;;;;;;-1.66;100.00;100870.38;5075167;28;20090;-73
2022/01/07 03:07:48;;;;;;;7.60;3.35;;;;;;;-1.84;100.00;100881.69;5074881;28;20044;-73
2022/01/07 03:10:19;;;;;;;10.15;3.55;;;;;;;-2.08;100.00;100887.78;5074924;28;20093;-71
2022/01/07 03:12:47;;;;;;;6.75;3.50;;;;;;;-2.07;100.00;100884.31;5075344;28;20041;-71
2022/01/07 03:15:16;;;;;;;7.65;3.40;;;;;;;-1.90;100.00;100886.94;5075037;28;20389;-71
2022/01/07 03:17:44;;;;;;;9.40;3.30;;;;;;;-1.85;100.00;100886.06;5074626;28;20049;-70
2022/01/07 03:20:16;;;;;;;7.22;3.70;;;;;;;-1.89;100.00;100884.31;5074620;28;20056;-71
2022/01/07 03:22:45;;;;;;;7.72;3.47;;;;;;;-1.96;100.00;100887.78;5074603;28;20040;-70
2022/01/07 03:25:16;;;;;;;9.20;3.78;;;;;;;-1.99;100.00;100895.66;5074465;28;20063;-71
2022/01/07 03:27:45;;;;;;;9.57;3.55;;;;;;;-2.07;100.00;100894.75;5074532;28;20040;-71
2022/01/07 03:30:16;;;;;;;9.30;3.55;;;;;;;-2.11;100.00;100895.63;5074779;28;20036;-71
2022/01/07 03:32:46;;;;;;;9.32;3.45;;;;;;;-1.91;100.00;100888.69;5074366;28;20044;-71
2022/01/07 03:35:17;;;;;;;8.05;3.70;;;;;;;-2.01;100.00;100894.78;5074626;28;20055;-70
2022/01/07 03:37:48;;;;;;;7.03;3.60;;;;;;;-2.21;100.00;100901.72;5074463;28;20044;-71
2022/01/07 03:40:20;;;;;;;8.57;3.88;;;;;;;-2.16;100.00;100892.13;5074520;28;20051;-71
2022/01/07 03:42:49;;;;;;;8.02;3.42;;;;;;;-2.22;100.00;100895.63;5074231;28;20041;-71
2022/01/07 03:45:19;;;;;;;7.25;3.83;;;;;;;-2.46;100.00;100912.09;5074410;28;20040;-72
2022/01/07 03:47:47;;;;;;;7.38;3.92;;;;;;;-2.53;100.00;100920.75;5074118;28;20106;-72
2022/01/07 03:50:21;;;;;;;10.27;3.78;;;;;;;-2.54;100.00;100913.78;5074273;28;20464;-72
2022/01/07 03:52:50;;;;;;;9.77;4.10;;;;;;;-2.52;100.00;100901.59;5074147;28;20044;-72
2022/01/07 03:55:24;;;;;;;10.10;4.22;;;;;;;-2.35;100.00;100912.13;5074186;28;20048;-72
2022/01/07 03:57:52;;;;;;;9.50;3.90;;;;;;;-2.36;100.00;100913.84;5074204;28;20050;-70
2022/01/07 04:00:23;;;;;;;9.35;4.22;;;;;;;-2.43;100.00;100914.69;5074072;28;20056;-73
2022/01/07 04:02:52;;;;;;;11.40;3.95;;;;;;;-2.49;100.00;100912.09;5075487;28;20432;-73
2022/01/07 04:05:22;;;;;;;8.55;3.80;;;;;;;-2.44;100.00;100918.19;5074088;28;20126;-73
2022/01/07 04:07:51;;;;;;;9.30;3.83;;;;;;;-2.49;100.00;100912.09;5073833;28;20106;-73
2022/01/07 04:10:21;;;;;;;10.90;4.25;;;;;;;-2.34;100.00;100916.47;5073910;28;20094;-73
2022/01/07 04:12:49;;;;;;;8.73;3.53;;;;;;;-2.29;100.00;100912.16;5073665;28;20060;-73
2022/01/07 04:15:17;;;;;;;9.13;4.13;;;;;;;-2.25;100.00;100921.72;5073194;28;20089;-73
2022/01/07 04:17:50;;;;;;;9.77;4.10;;;;;;;-2.39;100.00;100923.44;5073446;28;20435;-72
2022/01/07 04:20:20;;;;;;;6.78;4.03;;;;;;;-2.26;100.00;100916.50;5073914;28;20048;-72
2022/01/07 04:22:48;;;;;;;8.70;3.70;;;;;;;-2.36;100.00;100919.09;5073390;28;20041;-72
2022/01/07 04:25:18;;;;;;;11.18;4.07;;;;;;;-2.39;100.00;100924.31;5073770;28;20045;-73
2022/01/07 04:27:49;;;;;;;9.70;3.97;;;;;;;-2.32;100.00;100918.25;5073392;28;20048;-73
2022/01/07 04:30:18;;;;;;;7.43;3.83;;;;;;;-2.26;100.00;100914.75;5073617;28;20393;-73
2022/01/07 04:32:46;;;;;;;8.05;3.85;;;;;;;-2.34;100.00;100921.69;5073296;28;20424;-74
2022/01/07 04:35:15;;;;;;;9.93;3.78;;;;;;;-2.42;100.00;100926.03;5073249;28;20078;-72
2022/01/07 04:37:44;;;;;;;7.22;3.67;;;;;;;-2.43;100.00;100927.75;5073131;28;20052;-72
2022/01/07 04:40:15;;;;;;;7.13;3.92;;;;;;;-2.43;100.00;100917.31;5073436;28;20090;-73
2022/01/07 04:42:43;;;;;;;11.38;3.88;;;;;;;-2.09;100.00;100917.41;5073112;28;20045;-73
2022/01/07 04:45:13;;;;;;;7.63;3.63;;;;;;;-2.42;100.00;100923.41;5072981;28;20036;-72
2022/01/07 04:47:43;;;;;;;8.05;3.92;;;;;;;-2.52;100.00;100935.56;5073092;28;20048;-72
2022/01/07 04:50:14;;;;;;;7.75;3.90;;;;;;;-2.61;100.00;100927.69;5072609;28;20076;-72
2022/01/07 04:52:44;;;;;;;7.43;3.83;;;;;;;-2.79;100.00;100928.50;5072727;28;20045;-73
2022/01/07 04:55:17;;;;;;;8.07;3.90;;;;;;;-2.89;100.00;100938.03;5073602;28;20131;-74
2022/01/07 04:57:47;;;;;;;9.00;4.68;;;;;;;-3.04;100.00;100944.88;5071847;28;20056;-72
2022/01/07 05:00:19;;;;;;;11.52;4.50;;;;;;;-3.09;100.00;100938.75;5073185;28;20052;-71
2022/01/07 05:02:48;;;;;;;10.50;4.60;;;;;;;-3.02;100.00;100935.31;5072895;28;20123;-71
2022/01/07 05:05:16;;;;;;;8.88;4.25;;;;;;;-3.04;100.00;100934.44;5072912;28;20090;-73
2022/01/07 05:07:44;;;;;;;10.13;4.45;;;;;;;-3.02;100.00;100936.19;5072749;28;20050;-73
2022/01/07 05:10:14;;;;;;;7.70;4.05;;;;;;;-3.04;100.00;100934.44;5073191;28;20045;-73
2022/01/07 05:12:43;;;;;;;10.60;5.22;;;;;;;-2.85;100.00;100938.91;5072370;28;20072;-74
2022/01/07 05:15:12;;;;;;;9.45;4.72;;;;;;;-2.66;100.00;100937.25;5073045;28;20037;-73
2022/01/07 05:17:42;;;;;;;11.63;5.15;;;;;;;-2.53;100.00;100931.22;5072782;28;20394;-73
2022/01/07 05:20:11;;;;;;;9.43;4.95;;;;;;;-2.50;100.00;100922.53;5072772;28;20071;-73
2022/01/07 05:22:40;;;;;;;11.63;4.93;;;;;;;-2.47;100.00;100938.22;5072607;28;20052;-73
2022/01/07 05:25:10;;;;;;;10.82;5.03;;;;;;;-2.63;100.00;100939.88;5073776;28;20041;-72
2022/01/07 05:27:39;;;;;;;9.00;4.75;;;;;;;-2.78;100.00;100942.44;5076680;28;20044;-72
2022/01/07 05:30:10;;;;;;;11.52;5.03;;;;;;;-2.90;100.00;100946.69;5076947;28;20044;-72
2022/01/07 05:32:38;;;;;;;10.57;4.80;;;;;;;-2.90;100.00;100951.06;5076326;28;20036;-74
2022/01/07 05:35:09;;;;;;;12.02;5.07;;;;;;;-2.90;100.00;100953.66;5075883;28;20048;-73
2022/01/07 05:37:38;;;;;;;10.13;5.20;;;;;;;-2.85;100.00;100949.34;5076630;28;20043;-73
2022/01/07 05:40:07;;;;;;;10.32;5.03;;;;;;;-2.85;100.00;100956.31;5076661;28;20136;-72
2022/01/07 05:42:37;;;;;;;10.45;5.03;;;;;;;-2.97;100.00;100951.91;5076470;28;20079;-72
2022/01/07 05:45:06;;;;;;;9.23;5.63;;;;;;;-2.90;100.00;100951.91;5076245;28;20041;-72
2022/01/07 05:47:34;;;;;;;14.80;5.75;;;;;;;-2.69;100.00;100956.41;5076250;28;20083;-72
2022/01/07 05:50:04;;;;;;;12.95;5.63;;;;;;;-2.80;100.00;100958.06;5076580;28;20044;-71
2022/01/07 05:52:35;;;;;;;11.73;5.35;;;;;;;-2.81;100.00;100955.44;5076084;28;20049;-73
2022/01/07 05:55:03;;;;;;;13.02;5.57;;;;;;;-2.76;100.00;100959.84;5076015;28;20655;-72
2022/01/07 05:57:31;;;;;;;12.90;7.38;;;;;;;-2.72;100.00;100955.50;5076018;28;20048;-72
2022/01/07 06:00:00;;;;;;;11.50;6.18;;;;;;;-2.93;100.00;100964.09;5075937;28;20053;-74
2022/01/07 06:02:28;;;;;;;16.98;6.35;;;;;;;-3.00;100.00;100965.78;5076022;28;20090;-74
2022/01/07 06:04:56;;;;;;;14.20;4.93;;;;;;;-2.90;100.00;100967.59;5075572;28;20116;-74
2022/01/07 06:07:25;;;;;;;12.15;5.88;;;;;;;-2.90;100.00;100970.19;5075981;28;20051;-72
2022/01/07 06:09:54;;;;;;;18.92;8.88;;;;;;;-3.09;100.00;100976.16;5075900;28;20051;-73
2022/01/07 06:12:22;;;;;;;24.02;10.20;;;;;;;-3.13;100.00;100969.19;5076097;28;20067;-73
2022/01/07 06:14:51;;;;;;;23.77;9.90;;;;;;;-3.21;100.00;100970.88;5075381;28;20482;-73
2022/01/07 06:17:19;;;;;;;18.92;8.98;;;;;;;-3.13;100.00;100977.03;5075579;28;20040;-72
2022/01/07 06:19:47;;;;;;;18.05;8.45;;;;;;;-3.19;100.00;100970.00;5075397;28;20043;-74
2022/01/07 06:22:16;;;;;;;17.50;8.45;;;;;;;-3.21;100.00;100976.09;5074740;28;20044;-71
2022/01/07 06:24:44;;;;;;;18.27;7.38;;;;;;;-3.33;100.00;100986.44;5075582;28;20478;-71
2022/01/07 06:27:14;;;;;;;18.35;7.50;;;;;;;-3.23;100.00;100988.25;5075726;28;20397;-71
2022/01/07 06:29:45;;;;;;;16.77;7.10;;;;;;;-2.97;100.00;100981.50;5075534;28;20075;-72
2022/01/07 06:32:14;;;;;;;15.55;7.80;;;;;;;-3.22;100.00;100987.38;5075541;28;20045;-72
2022/01/07 06:34:42;;;;;;;14.98;7.40;;;;;;;-3.47;100.00;100995.03;5075681;28;20371;-72
2022/01/07 06:37:12;;;;;;;15.10;8.07;;;;;;;-3.55;100.00;100996.69;5074496;28;20040;-71
2022/01/07 06:39:40;;;;;;;16.00;7.82;;;;;;;-3.61;100.00;101000.97;5075497;28;20127;-72
2022/01/07 06:42:09;;;;;;;17.05;8.35;;;;;;;-3.68;100.00;101004.38;5075711;28;20036;-72
2022/01/07 06:44:39;;;;;;;17.10;8.82;;;;;;;-3.37;100.00;101005.56;5075496;28;20048;-73
2022/01/07 06:47:08;;;;;;;18.92;7.78;;;;;;;-3.33;100.00;101009.91;5075405;28;20403;-72
2022/01/07 06:49:36;;;;;;;14.98;7.03;;;;;;;-3.36;100.00;101015.13;5075510;28;20119;-72
2022/01/07 06:52:05;;;;;;;16.40;7.05;;;;;;;-3.23;100.00;101019.56;5075215;28;20127;-72
2022/01/07 06:54:35;;;;;;;15.93;6.97;;;;;;;-2.84;100.00;101015.50;5075208;28;20040;-71
2022/01/07 06:57:04;;;;;;;12.40;6.72;;;;;;;-2.74;100.00;101012.09;5075063;28;20063;-72
2022/01/07 06:59:32;;;;;;;14.48;7.60;;;;;;;-2.73;100.00;101019.91;5074834;28;20131;-71
2022/01/07 07:02:02;;;;;;;14.73;7.20;;;;;;;-2.86;100.00;101010.28;5075199;28;20041;-71
2022/01/07 07:04:30;;;;;;;16.90;8.02;;;;;;;-2.76;100.00;101006.84;5074800;28;20051;-71
2022/01/07 07:06:58;;;;;;;18.13;7.78;;;;;;;-2.94;100.00;101012.81;5074875;28;20040;-71
2022/01/07 07:09:27;;;;;;;16.70;8.13;;;;;;;-2.82;100.00;101016.38;5074896;28;20048;-71
2022/01/07 07:11:55;;;;;;;15.13;7.53;;;;;;;-2.68;100.00;101009.50;5074784;28;20036;-71
2022/01/07 07:14:23;;;;;;;16.15;8.13;;;;;;;-2.84;100.00;101010.28;5074665;28;20044;-71
2022/01/07 07:16:51;;;;;;;17.30;8.30;;;;;;;-2.82;100.00;101008.53;5074832;28;20124;-71
2022/01/07 07:19:21;;;;;;;17.73;7.53;;;;;;;-2.78;100.00;101024.25;5075117;28;20044;-71
2022/01/07 07:21:50;;;;;;;17.10;8.20;;;;;;;-2.74;100.00;101019.91;5074901;28;20466;-71
2022/01/07 07:24:18;;;;;;;18.73;7.75;;;;;;;-2.69;100.00;101013.00;5074693;28;20040;-70
2022/01/07 07:26:46;;;;;;;14.88;7.32;;;;;;;-2.71;100.00;101017.31;5074483;28;20047;-72
2022/01/07 07:29:15;;;;;;;16.77;8.00;;;;;;;-2.77;100.00;101026.00;5074854;28;20072;-71
2022/01/07 07:31:48;;;;;;;16.17;7.57;;;;;;;-2.66;100.00;101023.44;5074538;28;20094;-71
2022/01/07 07:34:32;;;;;;;17.88;8.98;;;;;;;-2.77;100.00;101022.50;5074461;28;20091;-70
2022/01/07 07:37:01;;;;;;;19.27;8.50;;;;;;;-2.57;100.00;101015.66;5074460;28;20080;-70
2022/01/07 07:39:30;;;;;;;15.40;8.05;;;;;;;-2.54;100.00;101017.41;5074667;28;20119;-71
2022/01/07 07:41:58;;;;;;;17.15;8.80;;;;;;;-2.60;100.00;101019.16;5074394;28;20039;-70
2022/01/07 07:44:26;;;;;;;15.65;8.25;;;;;;;-2.45;100.00;101020.06;5074162;28;20543;-71
2022/01/07 07:46:54;;;;;;;15.82;7.85;;;;;;;-2.48;100.00;101022.69;5072794;28;20105;-72
2022/01/07 07:49:23;;;;;;;18.63;8.45;;;;;;;-2.61;100.00;101019.09;5073915;28;20098;-72
2022/01/07 07:51:52;;;;;;;17.48;8.45;;;;;;;-2.63;100.00;101026.06;5074073;28;20094;-72
2022/01/07 07:54:22;;;;;;;17.63;7.60;;;;;;;-2.71;100.00;101031.25;5074189;28;20444;-71
2022/01/07 07:56:50;;;;;;;19.65;8.60;;;;;;;-2.67;100.00;101027.81;5074063;28;20123;-72
2022/01/07 07:59:19;;;;;;;18.88;9.40;;;;;;;-2.60;100.00;101023.50;5073988;28;20540;-71
2022/01/07 08:01:47;;;;;;;16.58;8.38;;;;;;;-2.36;100.00;101021.00;5073884;28;20127;-71
2022/01/07 08:04:18;;;;;;;18.20;8.15;;;;;;;-2.21;100.00;101027.16;5073760;28;20058;-71
2022/01/07 08:06:46;;;;;;;15.10;8.05;;;;;;;-2.26;100.00;101028.88;5072748;28;20147;-71
2022/01/07 08:09:14;;;;;;;17.73;9.23;;;;;;;-2.19;100.00;101028.03;5073760;28;20055;-71
2022/01/07 08:11:52;;;;;;;21.42;9.27;;;;;;;-2.24;100.00;101028.00;5074029;28;20044;-71
2022/01/07 08:17:08;;;;;;;14.50;7.57;;;;;;;-1.90;100.00;101026.41;5073629;28;20102;-71
2022/01/07 08:19:36;;;;;;;20.95;8.48;;;;;;;-1.97;100.00;101035.09;5073877;28;20040;-71
2022/01/07 08:22:06;;;;;;;18.27;8.10;;;;;;;-2.01;100.00;101041.19;5073576;28;20044;-71
2022/01/07 08:24:34;;;;;;;17.25;8.18;;;;;;;-1.92;100.00;101036.00;5074033;28;20082;-72
2022/01/07 08:27:05;;;;;;;17.20;9.30;;;;;;;-2.02;100.00;101042.94;5072991;28;20044;-71
2022/01/07 08:29:56;;;;;;;17.30;8.60;;;;;;;-1.99;100.00;101039.44;5073485;28;20045;-72
2022/01/07 08:35:10;;;;;;;16.30;8.88;;;;;;;-1.90;100.00;101043.84;5073228;28;20393;-72
2022/01/07 08:37:39;;;;;;;18.50;8.52;;;;;;;-1.79;100.00;101039.50;5073458;28;20054;-72
2022/01/07 08:40:08;;;;;;;17.05;8.80;;;;;;;-1.79;100.00;101043.00;5073197;28;20051;-72
2022/01/07 08:42:38;;;;;;;17.70;8.30;;;;;;;-1.77;100.00;101049.09;5073124;28;20055;-72
2022/01/07 08:45:07;;;;;;;15.82;8.65;;;;;;;-1.67;100.00;101041.28;5073228;28;20043;-71
2022/01/07 08:47:35;;;;;;;17.67;8.80;;;;;;;-1.48;100.00;101045.66;5073133;28;20139;-72
2022/01/07 08:50:04;;;;;;;15.70;7.30;;;;;;;-1.47;100.00;101050.03;5073131;28;20438;-72
2022/01/07 08:52:32;;;;;;;12.05;6.32;;;;;;;-1.32;100.00;101050.06;5073363;28;20050;-72
2022/01/07 08:55:00;;;;;;;14.70;7.10;;;;;;;-1.47;100.00;101056.13;5073242;28;20097;-72
2022/01/07 08:57:29;;;;;;;14.57;7.57;;;;;;;-1.58;100.00;101049.13;5073914;28;20539;-72
2022/01/07 08:59:58;;;;;;;14.68;7.30;;;;;;;-1.61;100.00;101059.59;5072364;28;20056;-72
2022/01/07 09:02:26;;;;;;;14.70;7.93;;;;;;;-1.69;100.00;101048.25;5073224;28;20045;-72
2022/01/07 09:04:56;;;;;;;17.40;7.10;;;;;;;-1.68;100.00;101052.59;5072576;28;20048;-72
2022/01/07 09:07:24;;;;;;;15.30;7.43;;;;;;;-1.59;100.00;101050.00;5073127;28;20079;-71
2022/01/07 09:09:52;;;;;;;16.38;7.68;;;;;;;-1.62;100.00;101048.28;5072977;28;20076;-73
2022/01/07 09:12:20;;;;;;;15.35;6.82;;;;;;;-1.61;100.00;101036.06;5072775;28;20094;-70
2022/01/07 09:14:48;;;;;;;11.82;6.03;;;;;;;-1.66;100.00;101027.31;5072837;28;20044;-72
2022/01/07 09:17:18;;;;;;;11.23;5.57;;;;;;;-1.59;100.00;101029.94;5073091;28;20393;-72
2022/01/07 09:19:47;;;;;;;11.20;6.13;;;;;;;-1.50;100.00;101023.88;5073101;28;20053;-72
2022/01/07 09:22:15;;;;;;;16.20;6.78;;;;;;;-1.47;100.00;101018.63;5072466;28;20128;-72
2022/01/07 09:24:43;;;;;;;14.13;6.63;;;;;;;-1.44;100.00;101023.88;5072964;28;20071;-72
2022/01/07 09:27:11;;;;;;;12.07;6.40;;;;;;;-1.39;100.00;101022.13;5072411;28;20083;-72
2022/01/07 09:29:39;;;;;;;12.02;6.07;;;;;;;-1.28;100.00;101023.00;5072865;28;20036;-72
2022/01/07 09:32:08;;;;;;;11.57;5.78;;;;;;;-1.14;100.00;101012.53;5072672;28;20051;-72
2022/01/07 09:34:38;;;;;;;10.93;5.50;;;;;;;-0.83;100.00;101017.75;5073051;28;20041;-72
2022/01/07 09:37:07;;;;;;;10.20;5.30;;;;;;;-0.75;100.00;101014.25;5072941;28;20045;-72
2022/01/07 09:39:36;;;;;;;11.30;4.78;;;;;;;-0.68;100.00;101008.09;5072995;28;20126;-72
2022/01/07 09:42:07;;;;;;;11.98;5.65;;;;;;;-0.54;100.00;100999.34;5072635;28;20044;-72
2022/01/07 09:44:38;;;;;;;10.48;5.30;;;;;;;-0.41;100.00;101001.03;5072637;28;20051;-72
2022/01/07 09:47:07;;;;;;;10.27;5.18;;;;;;;-0.37;100.00;100994.94;5071722;28;20056;-72
2022/01/07 09:49:35;;;;;;;11.02;5.32;;;;;;;-0.45;100.00;100988.84;5072289;28;20076;-72
2022/01/07 09:52:07;;;;;;;11.23;5.35;;;;;;;-0.37;100.00;100990.56;5072585;28;20040;-72
2022/01/07 09:54:39;;;;;;;10.80;5.25;;;;;;;-0.21;99.72;100985.22;5072864;28;20127;-72
2022/01/07 09:57:09;;;;;;;10.82;5.05;;;;;;;-0.24;99.50;100980.88;5072299;28;20037;-72
2022/01/07 09:59:38;;;;;;;12.52;5.32;;;;;;;-0.22;100.00;100971.25;5072607;28;20048;-72
2022/01/07 10:02:09;;;;;;;9.55;4.65;;;;;;;0.08;97.51;100974.59;5072508;28;20041;-72
2022/01/07 10:04:39;;;;;;;10.55;4.85;;;;;;;-0.01;97.14;100963.25;5072306;28;20447;-72
2022/01/07 10:07:16;;;;;;;14.23;4.88;;;;;;;0.10;97.39;100964.97;5072255;28;20113;-72
2022/01/07 10:09:59;;;;;;;10.80;5.10;;;;;;;0.07;97.56;100967.59;5072568;28;20126;-72
2022/01/07 10:12:29;;;;;;;10.13;5.03;;;;;;;0.15;97.90;100971.91;5075662;28;20389;-72
2022/01/07 10:15:11;;;;;;;13.35;4.85;;;;;;;0.14;97.68;100958.81;5076100;28;20040;-72
2022/01/07 10:17:39;;;;;;;8.95;4.13;;;;;;;0.15;97.30;100958.81;5076328;28;20032;-72
2022/01/07 10:20:09;;;;;;;13.07;4.72;;;;;;;0.09;98.45;100961.44;5075956;28;20049;-72
2022/01/07 10:22:54;;;;;;;8.52;4.10;;;;;;;0.13;97.97;100957.06;5076078;28;20046;-72
2022/01/07 10:25:25;;;;;;;7.35;3.75;;;;;;;0.23;96.03;100958.75;5076029;28;20037;-71
2022/01/07 10:28:00;;;;;;;9.85;3.83;;;;;;;0.15;95.72;100950.94;5075632;28;20051;-71
2022/01/07 10:30:34;;;;;;;10.57;4.68;;;;;;;0.10;96.62;100949.25;5076139;28;20036;-71
2022/01/07 10:33:17;;;;;;;9.80;4.28;;;;;;;0.06;97.39;100944.88;5075714;28;20390;-71
2022/01/07 10:35:47;;;;;;;7.50;3.83;;;;;;;0.03;96.81;100939.66;5075105;28;20065;-72
2022/01/07 10:38:20;;;;;;;9.80;4.30;;;;;;;0.06;96.65;100934.38;5075666;28;20841;-72
2022/01/07 10:40:51;;;;;;;9.05;3.58;;;;;;;0.20;94.58;100916.81;5075890;28;20048;-72
2022/01/07 10:43:21;;;;;;;6.90;3.20;;;;;;;0.25;92.71;100925.50;5075529;28;20041;-72
2022/01/07 10:45:52;;;;;;;8.15;3.58;;;;;;;0.30;91.43;100923.72;5075479;28;20401;-72
2022/01/07 10:48:22;;;;;;;6.22;3.20;;;;;;;0.32;91.82;100923.72;5075544;28;20082;-72
2022/01/07 10:50:51;;;;;;;8.00;3.72;;;;;;;0.28;92.57;100910.59;5075630;28;20440;-72
2022/01/07 10:53:30;;;;;;;8.35;3.65;;;;;;;0.35;91.53;100913.19;5075091;28;20040;-72
2022/01/07 10:56:05;;;;;;;8.27;3.70;;;;;;;0.23;92.54;100911.53;5075042;28;20404;-72
2022/01/07 10:58:52;;;;;;;10.50;3.67;;;;;;;0.35;92.17;100902.69;5075685;28;20132;-72
2022/01/07 11:01:34;;;;;;;8.93;3.35;;;;;;;0.43;92.14;100904.38;5075370;28;20056;-72
2022/01/07 11:04:10;;;;;;;8.90;3.72;;;;;;;0.62;90.46;100901.59;5075050;28;20048;-72
2022/01/07 11:06:40;;;;;;;7.57;3.95;;;;;;;0.51;91.09;100892.06;5075329;28;20558;-72
2022/01/07 11:09:12;;;;;;;7.90;3.70;;;;;;;0.49;91.13;100892.97;5074651;28;20036;-72
2022/01/07 11:11:50;;;;;;;6.90;3.83;;;;;;;0.61;90.89;100897.22;5074888;28;20040;-72
2022/01/07 11:14:21;;;;;;;9.07;4.32;;;;;;;0.53;91.21;100885.03;5075022;28;20089;-72
2022/01/07 11:16:50;;;;;;;7.35;3.70;;;;;;;0.45;91.98;100899.97;5073832;28;20060;-72
2022/01/07 11:19:22;;;;;;;9.27;4.28;;;;;;;0.40;91.65;100901.78;5075062;28;20053;-72
2022/01/07 11:21:53;;;;;;;9.38;4.20;;;;;;;0.52;91.79;100893.78;5075012;28;20398;-72
2022/01/07 11:24:40;;;;;;;8.30;4.10;;;;;;;0.51;92.21;100876.31;5073921;28;20119;-70
2022/01/07 11:27:10;;;;;;;8.95;3.88;;;;;;;0.57;90.58;100875.34;5074665;28;20040;-72
2022/01/07 11:29:51;;;;;;;7.72;3.72;;;;;;;0.43;91.10;100867.63;5074780;28;20040;-72
2022/01/07 11:32:37;;;;;;;6.63;3.55;;;;;;;0.53;89.45;100868.41;5073622;28;20052;-72
2022/01/07 11:35:47;;;;;;;7.63;3.72;;;;;;;0.52;90.04;100870.16;5074635;28;20482;-72